sensor_id;sensor_type;location;lat;lon;timestamp;P1;durP1;ratioP1;P2;durP2;ratioP2
77872;SDS011;67068;52.116;4.440;2023-04-28T00:01:39;4.38;;;1.50;;
77872;SDS011;67068;52.116;4.440;2023-04-28T00:04:04;4.17;;;1.70;;
77872;SDS011;67068;52.116;4.440;2023-04-28T00:06:30;6.00;;;1.70;;
77872;SDS011;67068;52.116;4.440;2023-04-28T00:08:55;4.33;;;1.60;;
77872;SDS011;67068;52.116;4.440;2023-04-28T00:11:20;4.70;;;1.80;;
77872;SDS011;67068;52.116;4.440;2023-04-28T00:13:45;4.70;;;1.90;;
77872;SDS011;67068;52.116;4.440;2023-04-28T00:16:11;5.83;;;1.80;;
77872;SDS011;67068;52.116;4.440;2023-04-28T00:18:36;3.57;;;1.40;;
77872;SDS011;67068;52.116;4.440;2023-04-28T00:21:01;4.73;;;1.83;;
77872;SDS011;67068;52.116;4.440;2023-04-28T00:23:26;5.13;;;1.90;;
77872;SDS011;67068;52.116;4.440;2023-04-28T00:25:52;4.63;;;1.80;;
77872;SDS011;67068;52.116;4.440;2023-04-28T00:28:17;6.80;;;1.90;;
77872;SDS011;67068;52.116;4.440;2023-04-28T00:30:42;4.83;;;1.57;;
77872;SDS011;67068;52.116;4.440;2023-04-28T00:33:08;6.23;;;1.70;;
77872;SDS011;67068;52.116;4.440;2023-04-28T00:35:33;4.67;;;1.70;;
77872;SDS011;67068;52.116;4.440;2023-04-28T00:37:58;5.80;;;1.57;;
77872;SDS011;67068;52.116;4.440;2023-04-28T00:40:31;5.30;;;1.80;;
77872;SDS011;67068;52.116;4.440;2023-04-28T00:42:56;4.70;;;1.70;;
77872;SDS011;67068;52.116;4.440;2023-04-28T00:45:21;6.10;;;1.97;;
77872;SDS011;67068;52.116;4.440;2023-04-28T00:47:46;6.30;;;1.80;;
77872;SDS011;67068;52.116;4.440;2023-04-28T00:50:12;5.20;;;1.80;;
77872;SDS011;67068;52.116;4.440;2023-04-28T00:52:37;4.33;;;1.60;;
77872;SDS011;67068;52.116;4.440;2023-04-28T00:55:02;5.30;;;1.90;;
77872;SDS011;67068;52.116;4.440;2023-04-28T00:57:28;4.75;;;1.73;;
77872;SDS011;67068;52.116;4.440;2023-04-28T00:59:54;6.32;;;1.63;;
77872;SDS011;67068;52.116;4.440;2023-04-28T01:02:20;5.77;;;2.10;;
77872;SDS011;67068;52.116;4.440;2023-04-28T01:04:45;4.57;;;1.60;;
77872;SDS011;67068;52.116;4.440;2023-04-28T01:07:10;5.43;;;2.10;;
77872;SDS011;67068;52.116;4.440;2023-04-28T01:09:36;5.38;;;1.80;;
77872;SDS011;67068;52.116;4.440;2023-04-28T01:12:01;4.90;;;1.67;;
77872;SDS011;67068;52.116;4.440;2023-04-28T01:14:26;5.00;;;2.00;;
77872;SDS011;67068;52.116;4.440;2023-04-28T01:16:52;5.13;;;1.80;;
77872;SDS011;67068;52.116;4.440;2023-04-28T01:19:20;5.60;;;2.05;;
77872;SDS011;67068;52.116;4.440;2023-04-28T01:21:49;5.00;;;1.75;;
77872;SDS011;67068;52.116;4.440;2023-04-28T01:24:14;6.18;;;1.85;;
77872;SDS011;67068;52.116;4.440;2023-04-28T01:26:40;6.63;;;1.85;;
77872;SDS011;67068;52.116;4.440;2023-04-28T01:29:05;6.07;;;1.90;;
77872;SDS011;67068;52.116;4.440;2023-04-28T01:31:30;4.20;;;1.50;;
77872;SDS011;67068;52.116;4.440;2023-04-28T01:33:56;4.03;;;1.55;;
77872;SDS011;67068;52.116;4.440;2023-04-28T01:36:21;5.15;;;1.70;;
77872;SDS011;67068;52.116;4.440;2023-04-28T01:38:47;4.28;;;1.60;;
77872;SDS011;67068;52.116;4.440;2023-04-28T01:41:13;6.18;;;1.83;;
77872;SDS011;67068;52.116;4.440;2023-04-28T01:43:38;5.40;;;1.73;;
77872;SDS011;67068;52.116;4.440;2023-04-28T01:46:03;5.37;;;2.03;;
77872;SDS011;67068;52.116;4.440;2023-04-28T01:48:28;5.37;;;1.90;;
77872;SDS011;67068;52.116;4.440;2023-04-28T01:50:53;5.73;;;1.67;;
77872;SDS011;67068;52.116;4.440;2023-04-28T01:53:19;5.68;;;2.00;;
77872;SDS011;67068;52.116;4.440;2023-04-28T01:55:45;5.13;;;2.15;;
77872;SDS011;67068;52.116;4.440;2023-04-28T01:58:10;5.88;;;2.10;;
77872;SDS011;67068;52.116;4.440;2023-04-28T02:00:36;5.57;;;1.80;;
77872;SDS011;67068;52.116;4.440;2023-04-28T02:03:01;5.57;;;1.67;;
77872;SDS011;67068;52.116;4.440;2023-04-28T02:05:26;6.20;;;1.93;;
77872;SDS011;67068;52.116;4.440;2023-04-28T02:07:51;5.60;;;1.73;;
77872;SDS011;67068;52.116;4.440;2023-04-28T02:10:17;5.87;;;1.90;;
77872;SDS011;67068;52.116;4.440;2023-04-28T02:12:42;3.83;;;1.60;;
77872;SDS011;67068;52.116;4.440;2023-04-28T02:15:07;6.05;;;1.85;;
77872;SDS011;67068;52.116;4.440;2023-04-28T02:17:33;5.68;;;2.08;;
77872;SDS011;67068;52.116;4.440;2023-04-28T02:19:58;5.13;;;1.73;;
77872;SDS011;67068;52.116;4.440;2023-04-28T02:22:23;4.77;;;1.70;;
77872;SDS011;67068;52.116;4.440;2023-04-28T02:24:49;6.60;;;2.00;;
77872;SDS011;67068;52.116;4.440;2023-04-28T02:27:14;6.00;;;2.03;;
77872;SDS011;67068;52.116;4.440;2023-04-28T02:29:39;5.83;;;1.70;;
77872;SDS011;67068;52.116;4.440;2023-04-28T02:32:05;6.57;;;1.90;;
77872;SDS011;67068;52.116;4.440;2023-04-28T02:34:30;6.85;;;1.83;;
77872;SDS011;67068;52.116;4.440;2023-04-28T02:36:55;5.87;;;1.80;;
77872;SDS011;67068;52.116;4.440;2023-04-28T02:39:20;5.60;;;1.87;;
77872;SDS011;67068;52.116;4.440;2023-04-28T02:41:49;4.70;;;1.90;;
77872;SDS011;67068;52.116;4.440;2023-04-28T02:44:15;6.70;;;2.05;;
77872;SDS011;67068;52.116;4.440;2023-04-28T02:46:40;5.25;;;1.83;;
77872;SDS011;67068;52.116;4.440;2023-04-28T02:49:05;4.97;;;1.77;;
77872;SDS011;67068;52.116;4.440;2023-04-28T02:51:30;5.60;;;1.90;;
77872;SDS011;67068;52.116;4.440;2023-04-28T02:53:55;4.80;;;1.80;;
77872;SDS011;67068;52.116;4.440;2023-04-28T02:56:21;5.03;;;1.70;;
77872;SDS011;67068;52.116;4.440;2023-04-28T02:58:46;5.03;;;1.80;;
77872;SDS011;67068;52.116;4.440;2023-04-28T03:01:11;5.80;;;1.77;;
77872;SDS011;67068;52.116;4.440;2023-04-28T03:03:36;6.10;;;1.88;;
77872;SDS011;67068;52.116;4.440;2023-04-28T03:06:02;6.80;;;2.10;;
77872;SDS011;67068;52.116;4.440;2023-04-28T03:08:27;6.15;;;2.15;;
77872;SDS011;67068;52.116;4.440;2023-04-28T03:10:53;7.90;;;2.30;;
77872;SDS011;67068;52.116;4.440;2023-04-28T03:13:18;5.87;;;1.93;;
77872;SDS011;67068;52.116;4.440;2023-04-28T03:15:43;5.72;;;2.20;;
77872;SDS011;67068;52.116;4.440;2023-04-28T03:18:09;5.80;;;2.13;;
77872;SDS011;67068;52.116;4.440;2023-04-28T03:20:34;6.55;;;2.40;;
77872;SDS011;67068;52.116;4.440;2023-04-28T03:22:59;6.23;;;2.10;;
77872;SDS011;67068;52.116;4.440;2023-04-28T03:25:26;6.57;;;2.47;;
77872;SDS011;67068;52.116;4.440;2023-04-28T03:27:51;6.63;;;2.33;;
77872;SDS011;67068;52.116;4.440;2023-04-28T03:30:16;5.17;;;1.80;;
77872;SDS011;67068;52.116;4.440;2023-04-28T03:32:41;6.63;;;2.17;;
77872;SDS011;67068;52.116;4.440;2023-04-28T03:35:07;5.73;;;1.93;;
77872;SDS011;67068;52.116;4.440;2023-04-28T03:37:32;7.55;;;2.28;;
77872;SDS011;67068;52.116;4.440;2023-04-28T03:39:57;5.47;;;2.00;;
77872;SDS011;67068;52.116;4.440;2023-04-28T03:42:22;6.43;;;1.70;;
77872;SDS011;67068;52.116;4.440;2023-04-28T03:44:48;6.07;;;2.17;;
77872;SDS011;67068;52.116;4.440;2023-04-28T03:47:13;5.93;;;2.00;;
77872;SDS011;67068;52.116;4.440;2023-04-28T03:49:38;6.40;;;1.90;;
77872;SDS011;67068;52.116;4.440;2023-04-28T03:52:03;6.83;;;2.20;;
77872;SDS011;67068;52.116;4.440;2023-04-28T03:54:29;6.70;;;2.20;;
77872;SDS011;67068;52.116;4.440;2023-04-28T03:56:55;6.40;;;1.90;;
77872;SDS011;67068;52.116;4.440;2023-04-28T03:59:20;7.03;;;1.80;;
77872;SDS011;67068;52.116;4.440;2023-04-28T04:01:45;6.53;;;1.98;;
77872;SDS011;67068;52.116;4.440;2023-04-28T04:04:10;7.33;;;2.67;;
77872;SDS011;67068;52.116;4.440;2023-04-28T04:06:36;4.90;;;2.00;;
77872;SDS011;67068;52.116;4.440;2023-04-28T04:09:02;6.03;;;1.97;;
77872;SDS011;67068;52.116;4.440;2023-04-28T04:11:27;6.10;;;2.00;;
77872;SDS011;67068;52.116;4.440;2023-04-28T04:13:52;6.60;;;2.23;;
77872;SDS011;67068;52.116;4.440;2023-04-28T04:16:17;5.57;;;2.10;;
77872;SDS011;67068;52.116;4.440;2023-04-28T04:18:43;7.37;;;2.60;;
77872;SDS011;67068;52.116;4.440;2023-04-28T04:21:08;5.73;;;1.83;;
77872;SDS011;67068;52.116;4.440;2023-04-28T04:23:33;7.33;;;2.00;;
77872;SDS011;67068;52.116;4.440;2023-04-28T04:25:58;5.90;;;2.20;;
77872;SDS011;67068;52.116;4.440;2023-04-28T04:28:23;7.07;;;1.80;;
77872;SDS011;67068;52.116;4.440;2023-04-28T04:30:49;5.07;;;1.70;;
77872;SDS011;67068;52.116;4.440;2023-04-28T04:33:14;5.60;;;1.70;;
77872;SDS011;67068;52.116;4.440;2023-04-28T04:35:39;5.47;;;2.10;;
77872;SDS011;67068;52.116;4.440;2023-04-28T04:38:04;6.43;;;1.70;;
77872;SDS011;67068;52.116;4.440;2023-04-28T04:40:31;5.72;;;1.75;;
77872;SDS011;67068;52.116;4.440;2023-04-28T04:42:56;5.23;;;1.93;;
77872;SDS011;67068;52.116;4.440;2023-04-28T04:45:21;5.80;;;1.80;;
77872;SDS011;67068;52.116;4.440;2023-04-28T04:47:47;5.30;;;1.60;;
77872;SDS011;67068;52.116;4.440;2023-04-28T04:50:12;6.25;;;1.90;;
77872;SDS011;67068;52.116;4.440;2023-04-28T04:52:37;6.03;;;1.80;;
77872;SDS011;67068;52.116;4.440;2023-04-28T04:55:03;5.78;;;1.73;;
77872;SDS011;67068;52.116;4.440;2023-04-28T04:57:28;6.75;;;2.13;;
77872;SDS011;67068;52.116;4.440;2023-04-28T04:59:54;5.83;;;2.10;;
77872;SDS011;67068;52.116;4.440;2023-04-28T05:02:19;6.05;;;1.90;;
77872;SDS011;67068;52.116;4.440;2023-04-28T05:04:44;6.33;;;2.00;;
77872;SDS011;67068;52.116;4.440;2023-04-28T05:07:09;6.27;;;2.20;;
77872;SDS011;67068;52.116;4.440;2023-04-28T05:09:35;6.77;;;2.50;;
77872;SDS011;67068;52.116;4.440;2023-04-28T05:12:00;6.70;;;1.70;;
77872;SDS011;67068;52.116;4.440;2023-04-28T05:14:25;6.60;;;2.00;;
77872;SDS011;67068;52.116;4.440;2023-04-28T05:16:51;5.70;;;2.00;;
77872;SDS011;67068;52.116;4.440;2023-04-28T05:19:16;4.13;;;1.60;;
77872;SDS011;67068;52.116;4.440;2023-04-28T05:21:41;5.87;;;1.80;;
77872;SDS011;67068;52.116;4.440;2023-04-28T05:24:06;5.32;;;2.00;;
77872;SDS011;67068;52.116;4.440;2023-04-28T05:26:32;5.82;;;2.10;;
77872;SDS011;67068;52.116;4.440;2023-04-28T05:28:57;6.07;;;2.00;;
77872;SDS011;67068;52.116;4.440;2023-04-28T05:31:22;6.47;;;2.37;;
77872;SDS011;67068;52.116;4.440;2023-04-28T05:33:48;6.97;;;2.20;;
77872;SDS011;67068;52.116;4.440;2023-04-28T05:36:13;6.70;;;2.20;;
77872;SDS011;67068;52.116;4.440;2023-04-28T05:38:40;5.00;;;1.70;;
77872;SDS011;67068;52.116;4.440;2023-04-28T05:41:06;5.87;;;2.00;;
77872;SDS011;67068;52.116;4.440;2023-04-28T05:43:31;6.03;;;2.20;;
77872;SDS011;67068;52.116;4.440;2023-04-28T05:45:56;5.63;;;1.70;;
77872;SDS011;67068;52.116;4.440;2023-04-28T05:48:22;7.40;;;2.20;;
77872;SDS011;67068;52.116;4.440;2023-04-28T05:50:47;6.13;;;2.17;;
77872;SDS011;67068;52.116;4.440;2023-04-28T05:53:12;6.23;;;2.20;;
77872;SDS011;67068;52.116;4.440;2023-04-28T05:55:37;5.90;;;2.03;;
77872;SDS011;67068;52.116;4.440;2023-04-28T05:58:03;5.90;;;1.93;;
77872;SDS011;67068;52.116;4.440;2023-04-28T06:00:28;6.00;;;2.20;;
77872;SDS011;67068;52.116;4.440;2023-04-28T06:02:53;5.73;;;1.80;;
77872;SDS011;67068;52.116;4.440;2023-04-28T06:05:19;5.93;;;2.03;;
77872;SDS011;67068;52.116;4.440;2023-04-28T06:07:44;6.03;;;2.17;;
77872;SDS011;67068;52.116;4.440;2023-04-28T06:10:09;4.83;;;1.87;;
77872;SDS011;67068;52.116;4.440;2023-04-28T06:12:35;8.10;;;2.00;;
77872;SDS011;67068;52.116;4.440;2023-04-28T06:15:01;6.32;;;2.10;;
77872;SDS011;67068;52.116;4.440;2023-04-28T06:17:26;6.27;;;2.00;;
77872;SDS011;67068;52.116;4.440;2023-04-28T06:19:52;5.40;;;2.10;;
77872;SDS011;67068;52.116;4.440;2023-04-28T06:22:18;5.78;;;1.70;;
77872;SDS011;67068;52.116;4.440;2023-04-28T06:24:43;6.90;;;2.10;;
77872;SDS011;67068;52.116;4.440;2023-04-28T06:27:09;5.15;;;2.00;;
77872;SDS011;67068;52.116;4.440;2023-04-28T06:29:34;6.50;;;1.95;;
77872;SDS011;67068;52.116;4.440;2023-04-28T06:31:59;6.50;;;2.00;;
77872;SDS011;67068;52.116;4.440;2023-04-28T06:34:25;5.57;;;2.10;;
77872;SDS011;67068;52.116;4.440;2023-04-28T06:36:54;7.13;;;2.13;;
77872;SDS011;67068;52.116;4.440;2023-04-28T06:39:20;8.20;;;2.20;;
77872;SDS011;67068;52.116;4.440;2023-04-28T06:41:45;5.25;;;1.83;;
77872;SDS011;67068;52.116;4.440;2023-04-28T06:44:11;6.05;;;2.05;;
77872;SDS011;67068;52.116;4.440;2023-04-28T06:46:37;6.35;;;1.90;;
77872;SDS011;67068;52.116;4.440;2023-04-28T06:49:02;6.00;;;2.07;;
77872;SDS011;67068;52.116;4.440;2023-04-28T06:51:27;7.07;;;2.50;;
77872;SDS011;67068;52.116;4.440;2023-04-28T06:53:53;6.03;;;2.10;;
77872;SDS011;67068;52.116;4.440;2023-04-28T06:56:18;6.45;;;2.60;;
77872;SDS011;67068;52.116;4.440;2023-04-28T06:58:44;7.20;;;1.92;;
77872;SDS011;67068;52.116;4.440;2023-04-28T07:01:09;6.97;;;2.33;;
77872;SDS011;67068;52.116;4.440;2023-04-28T07:03:34;5.87;;;2.33;;
77872;SDS011;67068;52.116;4.440;2023-04-28T07:06:00;6.55;;;2.17;;
77872;SDS011;67068;52.116;4.440;2023-04-28T07:08:25;6.07;;;2.07;;
77872;SDS011;67068;52.116;4.440;2023-04-28T07:10:50;5.78;;;2.17;;
77872;SDS011;67068;52.116;4.440;2023-04-28T07:13:16;6.47;;;2.43;;
77872;SDS011;67068;52.116;4.440;2023-04-28T07:15:41;6.03;;;2.07;;
77872;SDS011;67068;52.116;4.440;2023-04-28T07:18:06;5.87;;;2.20;;
77872;SDS011;67068;52.116;4.440;2023-04-28T07:20:31;6.73;;;2.40;;
77872;SDS011;67068;52.116;4.440;2023-04-28T07:22:57;5.60;;;1.87;;
77872;SDS011;67068;52.116;4.440;2023-04-28T07:25:22;6.57;;;2.30;;
77872;SDS011;67068;52.116;4.440;2023-04-28T07:27:47;7.53;;;2.20;;
77872;SDS011;67068;52.116;4.440;2023-04-28T07:30:12;6.50;;;2.30;;
77872;SDS011;67068;52.116;4.440;2023-04-28T07:32:38;7.33;;;2.33;;
77872;SDS011;67068;52.116;4.440;2023-04-28T07:35:03;6.13;;;2.07;;
77872;SDS011;67068;52.116;4.440;2023-04-28T07:37:28;6.93;;;2.00;;
77872;SDS011;67068;52.116;4.440;2023-04-28T07:39:53;5.80;;;2.23;;
77872;SDS011;67068;52.116;4.440;2023-04-28T07:42:20;5.75;;;2.13;;
77872;SDS011;67068;52.116;4.440;2023-04-28T07:44:45;7.33;;;2.70;;
77872;SDS011;67068;52.116;4.440;2023-04-28T07:47:11;7.22;;;2.60;;
77872;SDS011;67068;52.116;4.440;2023-04-28T07:49:36;6.25;;;2.30;;
77872;SDS011;67068;52.116;4.440;2023-04-28T07:52:01;7.20;;;2.57;;
77872;SDS011;67068;52.116;4.440;2023-04-28T07:54:26;5.57;;;2.40;;
77872;SDS011;67068;52.116;4.440;2023-04-28T07:56:52;6.27;;;2.30;;
77872;SDS011;67068;52.116;4.440;2023-04-28T07:59:17;6.43;;;2.43;;
77872;SDS011;67068;52.116;4.440;2023-04-28T08:01:42;5.47;;;2.37;;
77872;SDS011;67068;52.116;4.440;2023-04-28T08:04:07;6.53;;;2.13;;
77872;SDS011;67068;52.116;4.440;2023-04-28T08:06:33;6.40;;;1.95;;
77872;SDS011;67068;52.116;4.440;2023-04-28T08:09:00;7.43;;;2.78;;
77872;SDS011;67068;52.116;4.440;2023-04-28T08:11:26;6.28;;;2.03;;
77872;SDS011;67068;52.116;4.440;2023-04-28T08:13:51;6.55;;;2.25;;
77872;SDS011;67068;52.116;4.440;2023-04-28T08:16:17;5.85;;;2.05;;
77872;SDS011;67068;52.116;4.440;2023-04-28T08:18:42;5.93;;;2.25;;
77872;SDS011;67068;52.116;4.440;2023-04-28T08:21:08;5.93;;;2.15;;
77872;SDS011;67068;52.116;4.440;2023-04-28T08:23:33;7.40;;;2.28;;
77872;SDS011;67068;52.116;4.440;2023-04-28T08:25:59;6.37;;;2.50;;
77872;SDS011;67068;52.116;4.440;2023-04-28T08:28:24;6.40;;;2.47;;
77872;SDS011;67068;52.116;4.440;2023-04-28T08:30:50;5.47;;;2.00;;
77872;SDS011;67068;52.116;4.440;2023-04-28T08:33:16;7.35;;;2.85;;
77872;SDS011;67068;52.116;4.440;2023-04-28T08:35:41;7.20;;;2.40;;
77872;SDS011;67068;52.116;4.440;2023-04-28T08:38:07;7.50;;;2.33;;
77872;SDS011;67068;52.116;4.440;2023-04-28T08:40:37;7.18;;;2.42;;
77872;SDS011;67068;52.116;4.440;2023-04-28T08:43:03;6.68;;;2.70;;
77872;SDS011;67068;52.116;4.440;2023-04-28T08:45:29;6.53;;;2.40;;
77872;SDS011;67068;52.116;4.440;2023-04-28T08:47:54;6.90;;;2.25;;
77872;SDS011;67068;52.116;4.440;2023-04-28T08:50:21;7.93;;;2.60;;
77872;SDS011;67068;52.116;4.440;2023-04-28T08:52:47;6.88;;;2.50;;
77872;SDS011;67068;52.116;4.440;2023-04-28T08:55:12;6.07;;;2.30;;
77872;SDS011;67068;52.116;4.440;2023-04-28T09:00:03;7.60;;;2.40;;
77872;SDS011;67068;52.116;4.440;2023-04-28T09:02:29;5.85;;;2.15;;
77872;SDS011;67068;52.116;4.440;2023-04-28T09:04:54;7.60;;;2.43;;
77872;SDS011;67068;52.116;4.440;2023-04-28T09:07:19;6.80;;;2.77;;
77872;SDS011;67068;52.116;4.440;2023-04-28T09:09:44;7.83;;;2.70;;
77872;SDS011;67068;52.116;4.440;2023-04-28T09:12:10;7.77;;;2.60;;
77872;SDS011;67068;52.116;4.440;2023-04-28T09:14:36;6.82;;;2.33;;
77872;SDS011;67068;52.116;4.440;2023-04-28T09:17:02;5.82;;;2.53;;
77872;SDS011;67068;52.116;4.440;2023-04-28T09:19:33;5.60;;;2.35;;
77872;SDS011;67068;52.116;4.440;2023-04-28T09:22:00;7.60;;;2.45;;
77872;SDS011;67068;52.116;4.440;2023-04-28T09:26:51;6.65;;;2.25;;
77872;SDS011;67068;52.116;4.440;2023-04-28T09:29:16;7.47;;;2.50;;
77872;SDS011;67068;52.116;4.440;2023-04-28T09:31:41;7.00;;;2.70;;
77872;SDS011;67068;52.116;4.440;2023-04-28T09:34:07;6.88;;;2.60;;
77872;SDS011;67068;52.116;4.440;2023-04-28T09:36:33;6.75;;;2.53;;
77872;SDS011;67068;52.116;4.440;2023-04-28T09:38:59;7.82;;;2.75;;
77872;SDS011;67068;52.116;4.440;2023-04-28T09:41:34;6.63;;;2.92;;
77872;SDS011;67068;52.116;4.440;2023-04-28T09:46:35;7.40;;;2.72;;
77872;SDS011;67068;52.116;4.440;2023-04-28T09:49:00;7.05;;;2.85;;
77872;SDS011;67068;52.116;4.440;2023-04-28T09:51:26;6.97;;;2.63;;
77872;SDS011;67068;52.116;4.440;2023-04-28T09:53:52;7.03;;;2.97;;
77872;SDS011;67068;52.116;4.440;2023-04-28T09:56:18;6.88;;;2.70;;
77872;SDS011;67068;52.116;4.440;2023-04-28T09:58:45;6.38;;;2.60;;
77872;SDS011;67068;52.116;4.440;2023-04-28T10:01:12;6.30;;;2.50;;
77872;SDS011;67068;52.116;4.440;2023-04-28T10:03:37;7.60;;;2.65;;
77872;SDS011;67068;52.116;4.440;2023-04-28T10:06:03;5.97;;;2.40;;
77872;SDS011;67068;52.116;4.440;2023-04-28T10:08:29;8.00;;;3.20;;
77872;SDS011;67068;52.116;4.440;2023-04-28T10:10:54;6.60;;;3.00;;
77872;SDS011;67068;52.116;4.440;2023-04-28T10:13:21;7.30;;;2.63;;
77872;SDS011;67068;52.116;4.440;2023-04-28T10:15:47;6.60;;;3.05;;
77872;SDS011;67068;52.116;4.440;2023-04-28T10:18:12;6.68;;;2.47;;
77872;SDS011;67068;52.116;4.440;2023-04-28T10:20:39;7.22;;;2.80;;
77872;SDS011;67068;52.116;4.440;2023-04-28T10:23:16;7.45;;;2.65;;
77872;SDS011;67068;52.116;4.440;2023-04-28T10:25:48;7.22;;;2.78;;
77872;SDS011;67068;52.116;4.440;2023-04-28T10:28:16;7.70;;;3.08;;
77872;SDS011;67068;52.116;4.440;2023-04-28T10:30:42;6.78;;;2.67;;
77872;SDS011;67068;52.116;4.440;2023-04-28T10:33:27;7.43;;;2.70;;
77872;SDS011;67068;52.116;4.440;2023-04-28T10:35:53;7.07;;;2.90;;
77872;SDS011;67068;52.116;4.440;2023-04-28T10:38:18;6.70;;;2.38;;
77872;SDS011;67068;52.116;4.440;2023-04-28T10:43:13;7.43;;;2.35;;
77872;SDS011;67068;52.116;4.440;2023-04-28T10:48:17;7.95;;;2.47;;
77872;SDS011;67068;52.116;4.440;2023-04-28T10:54:05;7.82;;;2.90;;
77872;SDS011;67068;52.116;4.440;2023-04-28T10:56:19;8.00;;;2.60;;
77872;SDS011;67068;52.116;4.440;2023-04-28T10:58:52;7.80;;;2.67;;
77872;SDS011;67068;52.116;4.440;2023-04-28T11:08:46;9.00;;;3.10;;
77872;SDS011;67068;52.116;4.440;2023-04-28T11:11:15;8.07;;;2.90;;
77872;SDS011;67068;52.116;4.440;2023-04-28T11:13:41;8.25;;;3.25;;
77872;SDS011;67068;52.116;4.440;2023-04-28T11:16:06;7.53;;;3.05;;
77872;SDS011;67068;52.116;4.440;2023-04-28T11:18:47;8.93;;;2.97;;
77872;SDS011;67068;52.116;4.440;2023-04-28T11:21:14;8.50;;;2.88;;
77872;SDS011;67068;52.116;4.440;2023-04-28T11:23:39;11.48;;;2.67;;
77872;SDS011;67068;52.116;4.440;2023-04-28T11:26:05;7.93;;;2.80;;
77872;SDS011;67068;52.116;4.440;2023-04-28T11:28:30;8.60;;;2.73;;
77872;SDS011;67068;52.116;4.440;2023-04-28T11:31:14;8.43;;;2.77;;
77872;SDS011;67068;52.116;4.440;2023-04-28T11:33:48;7.68;;;2.50;;
77872;SDS011;67068;52.116;4.440;2023-04-28T11:36:33;8.23;;;2.70;;
77872;SDS011;67068;52.116;4.440;2023-04-28T11:39:00;8.23;;;2.53;;
77872;SDS011;67068;52.116;4.440;2023-04-28T11:41:25;7.65;;;2.55;;
77872;SDS011;67068;52.116;4.440;2023-04-28T11:43:51;8.75;;;2.42;;
77872;SDS011;67068;52.116;4.440;2023-04-28T11:46:20;5.25;;;1.77;;
77872;SDS011;67068;52.116;4.440;2023-04-28T11:48:45;5.57;;;1.95;;
77872;SDS011;67068;52.116;4.440;2023-04-28T11:51:28;7.10;;;2.08;;
77872;SDS011;67068;52.116;4.440;2023-04-28T11:53:53;6.45;;;1.80;;
77872;SDS011;67068;52.116;4.440;2023-04-28T11:56:19;6.05;;;2.05;;
77872;SDS011;67068;52.116;4.440;2023-04-28T11:58:45;6.25;;;2.00;;
77872;SDS011;67068;52.116;4.440;2023-04-28T12:01:11;5.78;;;2.25;;
77872;SDS011;67068;52.116;4.440;2023-04-28T12:03:46;6.13;;;1.88;;
77872;SDS011;67068;52.116;4.440;2023-04-28T12:06:11;6.85;;;2.13;;
77872;SDS011;67068;52.116;4.440;2023-04-28T12:08:41;5.70;;;1.50;;
77872;SDS011;67068;52.116;4.440;2023-04-28T12:11:07;5.77;;;1.70;;
77872;SDS011;67068;52.116;4.440;2023-04-28T12:13:34;6.53;;;1.67;;
77872;SDS011;67068;52.116;4.440;2023-04-28T12:16:00;5.10;;;1.35;;
77872;SDS011;67068;52.116;4.440;2023-04-28T12:18:27;4.45;;;1.60;;
77872;SDS011;67068;52.116;4.440;2023-04-28T12:20:52;5.87;;;1.87;;
77872;SDS011;67068;52.116;4.440;2023-04-28T12:23:27;6.28;;;1.67;;
77872;SDS011;67068;52.116;4.440;2023-04-28T12:25:53;6.95;;;1.88;;
77872;SDS011;67068;52.116;4.440;2023-04-28T12:28:18;6.13;;;1.47;;
77872;SDS011;67068;52.116;4.440;2023-04-28T12:30:43;5.13;;;1.52;;
77872;SDS011;67068;52.116;4.440;2023-04-28T12:33:22;4.40;;;1.45;;
77872;SDS011;67068;52.116;4.440;2023-04-28T12:35:48;5.78;;;1.73;;
77872;SDS011;67068;52.116;4.440;2023-04-28T12:38:14;5.07;;;1.50;;
77872;SDS011;67068;52.116;4.440;2023-04-28T12:40:40;5.57;;;1.70;;
77872;SDS011;67068;52.116;4.440;2023-04-28T12:43:06;4.35;;;1.20;;
77872;SDS011;67068;52.116;4.440;2023-04-28T12:45:31;4.37;;;1.40;;
77872;SDS011;67068;52.116;4.440;2023-04-28T12:47:56;3.50;;;1.20;;
77872;SDS011;67068;52.116;4.440;2023-04-28T12:50:22;4.93;;;1.30;;
77872;SDS011;67068;52.116;4.440;2023-04-28T12:52:48;5.60;;;1.52;;
77872;SDS011;67068;52.116;4.440;2023-04-28T12:55:13;6.33;;;1.50;;
77872;SDS011;67068;52.116;4.440;2023-04-28T12:57:38;4.63;;;1.38;;
77872;SDS011;67068;52.116;4.440;2023-04-28T13:00:04;5.70;;;1.53;;
77872;SDS011;67068;52.116;4.440;2023-04-28T13:02:33;5.10;;;1.40;;
77872;SDS011;67068;52.116;4.440;2023-04-28T13:04:58;5.47;;;1.98;;
77872;SDS011;67068;52.116;4.440;2023-04-28T13:07:23;6.10;;;1.70;;
77872;SDS011;67068;52.116;4.440;2023-04-28T13:09:49;6.10;;;2.17;;
77872;SDS011;67068;52.116;4.440;2023-04-28T13:12:14;6.27;;;1.70;;
77872;SDS011;67068;52.116;4.440;2023-04-28T13:14:39;6.50;;;1.80;;
77872;SDS011;67068;52.116;4.440;2023-04-28T13:17:04;8.47;;;2.40;;
77872;SDS011;67068;52.116;4.440;2023-04-28T13:19:30;7.07;;;1.90;;
77872;SDS011;67068;52.116;4.440;2023-04-28T13:21:57;7.22;;;1.60;;
77872;SDS011;67068;52.116;4.440;2023-04-28T13:24:22;6.73;;;1.83;;
77872;SDS011;67068;52.116;4.440;2023-04-28T13:26:48;7.68;;;2.05;;
77872;SDS011;67068;52.116;4.440;2023-04-28T13:29:13;5.93;;;1.77;;
77872;SDS011;67068;52.116;4.440;2023-04-28T13:31:39;5.78;;;1.73;;
77872;SDS011;67068;52.116;4.440;2023-04-28T13:34:04;7.05;;;1.80;;
77872;SDS011;67068;52.116;4.440;2023-04-28T13:36:30;7.43;;;1.90;;
77872;SDS011;67068;52.116;4.440;2023-04-28T13:38:57;4.60;;;1.23;;
77872;SDS011;67068;52.116;4.440;2023-04-28T13:41:22;7.82;;;1.70;;
77872;SDS011;67068;52.116;4.440;2023-04-28T13:43:47;5.77;;;1.83;;
77872;SDS011;67068;52.116;4.440;2023-04-28T13:46:13;5.23;;;1.50;;
77872;SDS011;67068;52.116;4.440;2023-04-28T13:48:38;8.43;;;1.53;;
77872;SDS011;67068;52.116;4.440;2023-04-28T13:51:04;6.13;;;1.65;;
77872;SDS011;67068;52.116;4.440;2023-04-28T13:53:30;7.70;;;2.10;;
77872;SDS011;67068;52.116;4.440;2023-04-28T13:55:55;7.45;;;1.95;;
77872;SDS011;67068;52.116;4.440;2023-04-28T13:58:24;8.27;;;1.75;;
77872;SDS011;67068;52.116;4.440;2023-04-28T14:00:50;7.18;;;1.60;;
77872;SDS011;67068;52.116;4.440;2023-04-28T14:03:16;8.38;;;1.60;;
77872;SDS011;67068;52.116;4.440;2023-04-28T14:05:43;8.23;;;1.80;;
77872;SDS011;67068;52.116;4.440;2023-04-28T14:08:08;7.88;;;2.10;;
77872;SDS011;67068;52.116;4.440;2023-04-28T14:10:34;6.40;;;1.80;;
77872;SDS011;67068;52.116;4.440;2023-04-28T14:12:59;7.32;;;1.90;;
77872;SDS011;67068;52.116;4.440;2023-04-28T14:15:25;11.32;;;2.53;;
77872;SDS011;67068;52.116;4.440;2023-04-28T14:17:50;8.10;;;1.90;;
77872;SDS011;67068;52.116;4.440;2023-04-28T14:20:15;8.10;;;1.93;;
77872;SDS011;67068;52.116;4.440;2023-04-28T14:22:41;9.10;;;1.95;;
77872;SDS011;67068;52.116;4.440;2023-04-28T14:25:07;8.30;;;2.30;;
77872;SDS011;67068;52.116;4.440;2023-04-28T14:27:32;6.57;;;1.75;;
77872;SDS011;67068;52.116;4.440;2023-04-28T14:29:58;7.33;;;2.00;;
77872;SDS011;67068;52.116;4.440;2023-04-28T14:32:24;8.65;;;1.73;;
77872;SDS011;67068;52.116;4.440;2023-04-28T14:34:49;7.23;;;1.80;;
77872;SDS011;67068;52.116;4.440;2023-04-28T14:37:15;6.77;;;1.50;;
77872;SDS011;67068;52.116;4.440;2023-04-28T14:39:42;9.00;;;2.03;;
77872;SDS011;67068;52.116;4.440;2023-04-28T14:42:07;6.78;;;1.90;;
77872;SDS011;67068;52.116;4.440;2023-04-28T14:44:33;6.97;;;1.73;;
77872;SDS011;67068;52.116;4.440;2023-04-28T14:46:58;5.80;;;1.80;;
77872;SDS011;67068;52.116;4.440;2023-04-28T14:49:23;7.50;;;1.95;;
77872;SDS011;67068;52.116;4.440;2023-04-28T14:51:50;7.05;;;2.25;;
77872;SDS011;67068;52.116;4.440;2023-04-28T14:54:16;6.43;;;1.83;;
77872;SDS011;67068;52.116;4.440;2023-04-28T14:56:41;7.20;;;2.03;;
77872;SDS011;67068;52.116;4.440;2023-04-28T14:59:06;6.93;;;1.97;;
77872;SDS011;67068;52.116;4.440;2023-04-28T15:01:32;7.00;;;1.60;;
77872;SDS011;67068;52.116;4.440;2023-04-28T15:03:57;7.37;;;2.00;;